createdAt,value
2023-02-11T00:03:15.905Z,-2.30
2023-02-11T00:06:37.563Z,-2.40
2023-02-11T00:09:59.173Z,-2.40
2023-02-11T00:13:21.245Z,-2.40
2023-02-11T00:16:44.296Z,-2.50
2023-02-11T00:20:08.222Z,-2.50
2023-02-11T00:23:30.280Z,-2.50
2023-02-11T00:26:51.925Z,-2.50
2023-02-11T00:30:13.555Z,-2.50
2023-02-11T00:33:36.513Z,-2.50
2023-02-11T00:36:58.258Z,-2.40
2023-02-11T00:40:20.055Z,-2.40
2023-02-11T00:43:41.740Z,-2.30
2023-02-11T00:47:03.399Z,-2.40
2023-02-11T00:50:26.418Z,-2.40
2023-02-11T00:53:48.042Z,-2.50
2023-02-11T00:57:09.657Z,-2.50
2023-02-11T01:00:31.255Z,-2.50
2023-02-11T01:03:52.876Z,-2.60
2023-02-11T01:07:16.072Z,-2.60
2023-02-11T01:10:37.793Z,-2.50
2023-02-11T01:13:59.409Z,-2.50
2023-02-11T01:17:21.034Z,-2.50
2023-02-11T01:20:42.673Z,-2.50
2023-02-11T01:24:05.909Z,-2.50
2023-02-11T01:27:27.531Z,-2.60
2023-02-11T01:30:49.454Z,-2.50
2023-02-11T01:34:11.219Z,-2.60
2023-02-11T01:37:32.930Z,-2.60
2023-02-11T01:40:57.742Z,-2.60
2023-02-11T01:44:26.602Z,-2.40
2023-02-11T01:47:48.382Z,-2.30
2023-02-11T01:51:12.341Z,-2.10
2023-02-11T01:54:35.311Z,-2.10
2023-02-11T01:58:00.855Z,-2.10
2023-02-11T02:01:24.557Z,-2.10
2023-02-11T02:04:50.213Z,-2.20
2023-02-11T02:08:13.970Z,-2.20
2023-02-11T02:11:36.008Z,-2.30
2023-02-11T02:15:16.367Z,-2.30
2023-02-11T02:18:44.636Z,-2.40
2023-02-11T02:22:16.748Z,-2.50
2023-02-11T02:26:08.452Z,-2.50
2023-02-11T02:29:53.771Z,-2.50
2023-02-11T02:33:33.074Z,-2.60
2023-02-11T02:37:00.744Z,-2.60
2023-02-11T02:40:24.944Z,-2.60
2023-02-11T02:43:48.169Z,-2.60
2023-02-11T02:47:09.789Z,-2.70
2023-02-11T02:50:32.679Z,-2.60
2023-02-11T02:53:59.841Z,-2.60
2023-02-11T02:57:27.829Z,-2.60
2023-02-11T03:00:51.831Z,-2.60
2023-02-11T03:04:17.369Z,-2.60
2023-02-11T03:07:41.693Z,-2.60
2023-02-11T03:11:05.908Z,-2.70
2023-02-11T03:14:28.789Z,-2.70
2023-02-11T03:17:52.351Z,-2.70
2023-02-11T03:21:16.022Z,-2.60
2023-02-11T03:24:38.708Z,-2.50
2023-02-11T03:28:07.375Z,-2.40
2023-02-11T03:31:31.635Z,-2.40
2023-02-11T03:34:55.335Z,-2.30
2023-02-11T03:38:20.487Z,-2.30
2023-02-11T03:41:42.587Z,-2.30
2023-02-11T03:45:07.979Z,-2.40
2023-02-11T03:48:31.526Z,-2.40
2023-02-11T03:51:53.624Z,-2.40
2023-02-11T03:55:17.182Z,-2.40
2023-02-11T03:58:38.799Z,-2.40
2023-02-11T04:02:01.757Z,-2.30
2023-02-11T04:05:23.361Z,-2.20
2023-02-11T04:08:44.960Z,-2.20
2023-02-11T04:12:07.031Z,-2.20
2023-02-11T04:15:28.721Z,-2.20
2023-02-11T04:18:51.704Z,-2.10
2023-02-11T04:22:13.516Z,-2.00
2023-02-11T04:25:35.217Z,-1.90
2023-02-11T04:28:56.827Z,-1.80
2023-02-11T04:32:18.464Z,-1.80
2023-02-11T04:35:41.408Z,-1.80
2023-02-11T04:39:03.151Z,-1.80
2023-02-11T04:42:24.776Z,-1.80
2023-02-11T04:45:46.396Z,-1.90
2023-02-11T04:49:08.012Z,-1.90
2023-02-11T04:52:30.985Z,-1.90
2023-02-11T04:55:52.878Z,-1.80
2023-02-11T04:59:15.381Z,-1.70
2023-02-11T05:02:37.116Z,-1.60
2023-02-11T05:05:58.746Z,-1.50
2023-02-11T05:09:21.715Z,-1.40
2023-02-11T05:12:43.309Z,-1.30
2023-02-11T05:16:05.372Z,-1.30
2023-02-11T05:19:26.961Z,-1.20
2023-02-11T05:22:48.588Z,-1.10
2023-02-11T05:26:12.217Z,-1.10
2023-02-11T05:29:33.848Z,-1.10
2023-02-11T05:32:55.513Z,-1.00
2023-02-11T05:36:17.126Z,-1.00
2023-02-11T05:39:38.766Z,-1.00
2023-02-11T05:43:01.745Z,-0.90
2023-02-11T05:46:23.378Z,-0.90
2023-02-11T05:49:45.112Z,-0.90
2023-02-11T05:53:06.857Z,-0.90
2023-02-11T05:56:28.685Z,-0.80
2023-02-11T05:59:51.653Z,-0.70
2023-02-11T06:03:13.387Z,-0.70
2023-02-11T06:06:35.007Z,-0.70
2023-02-11T06:09:56.663Z,-0.60
2023-02-11T06:13:18.290Z,-0.60
2023-02-11T06:16:41.253Z,-0.60
2023-02-11T06:20:03.832Z,-0.60
2023-02-11T06:23:27.020Z,-0.50
2023-02-11T06:26:49.760Z,-0.50
2023-02-11T06:30:11.730Z,-0.50
2023-02-11T06:33:34.907Z,-0.50
2023-02-11T06:36:56.548Z,-0.50
2023-02-11T06:40:18.234Z,-0.50
2023-02-11T06:43:40.326Z,-0.60
2023-02-11T06:47:02.089Z,-0.60
2023-02-11T06:50:25.067Z,-0.60
2023-02-11T06:53:47.178Z,-0.60
2023-02-11T06:57:08.796Z,-0.50
2023-02-11T07:00:30.434Z,-0.60
2023-02-11T07:03:52.320Z,-0.60
2023-02-11T07:07:15.279Z,-0.50
2023-02-11T07:10:36.890Z,-0.40
2023-02-11T07:14:00.377Z,-0.30
2023-02-11T07:17:22.096Z,-0.20
2023-02-11T07:20:44.072Z,-0.20
2023-02-11T07:24:10.438Z,-0.20
2023-02-11T07:27:32.666Z,-0.20
2023-02-11T07:30:54.442Z,0.00
2023-02-11T07:34:16.184Z,0.10
2023-02-11T07:37:37.813Z,0.20
2023-02-11T07:41:01.421Z,0.30
2023-02-11T07:44:23.043Z,0.40
2023-02-11T07:47:44.656Z,0.50
2023-02-11T07:51:06.982Z,0.70
2023-02-11T07:54:28.682Z,1.00
2023-02-11T07:57:51.634Z,1.20
2023-02-11T08:01:15.531Z,1.30
2023-02-11T08:04:37.232Z,1.40
2023-02-11T08:07:58.838Z,1.60
2023-02-11T08:11:21.280Z,1.80
2023-02-11T08:14:44.280Z,1.80
2023-02-11T08:18:05.912Z,1.80
2023-02-11T08:21:27.964Z,1.80
2023-02-11T08:24:52.247Z,1.90
2023-02-11T08:28:14.071Z,2.10
2023-02-11T08:31:37.773Z,2.50
2023-02-11T08:34:59.474Z,3.30
2023-02-11T08:38:21.093Z,4.00
2023-02-11T08:41:42.944Z,3.80
2023-02-11T08:45:04.905Z,3.20
2023-02-11T08:48:27.890Z,2.90
2023-02-11T08:51:49.666Z,2.70
2023-02-11T08:55:11.328Z,2.70
2023-02-11T08:58:33.141Z,3.10
2023-02-11T09:01:54.826Z,4.20
2023-02-11T09:05:17.960Z,5.20
2023-02-11T09:08:40.877Z,6.10
2023-02-11T09:12:02.562Z,6.60
2023-02-11T09:15:24.359Z,6.90
2023-02-11T09:18:46.594Z,7.20
2023-02-11T09:22:09.566Z,7.50
2023-02-11T09:25:31.198Z,7.50
2023-02-11T09:28:53.275Z,7.80
2023-02-11T09:32:14.983Z,7.60
2023-02-11T09:35:36.785Z,7.00
2023-02-11T09:39:00.846Z,6.60
2023-02-11T09:42:36.638Z,6.10
2023-02-11T09:45:58.813Z,5.60
2023-02-11T09:49:23.149Z,5.20
2023-02-11T09:52:47.276Z,5.00
2023-02-11T09:56:12.034Z,5.10
2023-02-11T09:59:33.783Z,5.00
2023-02-11T10:02:59.542Z,5.10
2023-02-11T10:06:41.452Z,5.00
2023-02-11T10:10:07.630Z,5.00
2023-02-11T10:13:47.188Z,5.00
2023-02-11T10:17:14.520Z,5.20
2023-02-11T10:20:37.322Z,5.30
2023-02-11T10:24:02.887Z,5.20
2023-02-11T10:27:28.372Z,5.30
2023-02-11T10:30:56.524Z,5.30
2023-02-11T10:34:19.630Z,5.40
2023-02-11T10:37:44.215Z,5.40
2023-02-11T10:41:06.373Z,5.50
2023-02-11T10:44:30.923Z,5.50
2023-02-11T10:47:52.584Z,5.50
2023-02-11T10:51:17.901Z,5.50
2023-02-11T10:54:39.546Z,5.50
2023-02-11T10:58:01.776Z,5.60
2023-02-11T11:01:25.124Z,5.60
2023-02-11T11:04:47.925Z,5.60
2023-02-11T11:08:11.045Z,5.70
2023-02-11T11:11:32.678Z,5.70
2023-02-11T11:14:55.335Z,5.70
2023-02-11T11:18:22.816Z,5.70
2023-02-11T11:21:45.960Z,5.80
2023-02-11T11:25:21.654Z,5.80
2023-02-11T11:28:50.597Z,6.00
2023-02-11T11:32:13.749Z,6.10
2023-02-11T11:35:35.381Z,6.10
2023-02-11T11:38:58.427Z,6.20
2023-02-11T11:42:26.449Z,6.20
2023-02-11T11:45:54.813Z,6.20
2023-02-11T11:49:20.859Z,6.30
2023-02-11T11:52:46.194Z,6.30
2023-02-11T11:56:11.381Z,6.50
2023-02-11T11:59:34.354Z,6.60
2023-02-11T12:03:13.973Z,6.70
2023-02-11T12:06:40.271Z,6.80
2023-02-11T12:10:17.816Z,6.90
2023-02-11T12:13:47.414Z,7.00
2023-02-11T12:17:16.626Z,7.20
2023-02-11T12:20:43.445Z,7.40
2023-02-11T12:24:17.209Z,7.70
2023-02-11T12:27:45.992Z,7.90
2023-02-11T12:31:21.451Z,8.10
2023-02-11T12:34:56.469Z,8.10
2023-02-11T12:38:28.852Z,8.20
2023-02-11T12:42:00.259Z,8.40
2023-02-11T12:45:27.948Z,8.60
2023-02-11T12:48:59.182Z,8.70
2023-02-11T12:52:30.440Z,8.80
2023-02-11T12:55:55.215Z,8.90
2023-02-11T12:59:20.647Z,9.20
2023-02-11T13:02:45.559Z,9.20
2023-02-11T13:06:09.867Z,9.20
2023-02-11T13:09:35.792Z,9.10
2023-02-11T13:12:58.561Z,8.90
2023-02-11T13:16:24.072Z,8.70
2023-02-11T13:19:48.425Z,8.60
2023-02-11T13:23:18.743Z,8.40
2023-02-11T13:26:46.617Z,8.30
2023-02-11T13:30:13.754Z,8.30
2023-02-11T13:33:36.036Z,8.30
2023-02-11T13:36:57.752Z,8.40
2023-02-11T13:40:21.356Z,8.50
2023-02-11T13:43:45.224Z,8.50
2023-02-11T13:47:07.063Z,8.50
2023-02-11T13:50:30.092Z,8.60
2023-02-11T13:53:53.333Z,8.50
2023-02-11T13:57:31.306Z,8.40
2023-02-11T14:00:54.770Z,8.30
2023-02-11T14:04:20.836Z,8.30
2023-02-11T14:08:04.308Z,8.20
2023-02-11T14:11:46.285Z,8.10
2023-02-11T14:15:18.907Z,7.90
2023-02-11T14:19:01.498Z,7.70
2023-02-11T14:22:25.250Z,7.60
2023-02-11T14:25:52.154Z,7.60
2023-02-11T14:29:16.524Z,7.60
2023-02-11T14:32:43.724Z,7.70
2023-02-11T14:36:13.960Z,7.70
2023-02-11T14:39:41.265Z,7.80
2023-02-11T14:43:07.831Z,7.80
2023-02-11T14:46:29.657Z,7.80
2023-02-11T14:49:51.378Z,7.80
2023-02-11T14:53:16.077Z,7.80
2023-02-11T14:56:37.685Z,7.80
2023-02-11T15:00:00.141Z,7.70
2023-02-11T15:03:25.850Z,7.70
2023-02-11T15:06:48.149Z,7.70
2023-02-11T15:10:15.847Z,7.70
2023-02-11T15:13:39.037Z,7.70
2023-02-11T15:17:02.060Z,7.70
2023-02-11T15:20:25.537Z,7.70
2023-02-11T15:23:54.697Z,7.60
2023-02-11T15:27:16.378Z,7.60
2023-02-11T15:30:39.379Z,7.60
2023-02-11T15:34:06.700Z,7.50
2023-02-11T15:37:29.434Z,7.40
2023-02-11T15:40:53.278Z,7.30
2023-02-11T15:44:27.896Z,7.30
2023-02-11T15:47:54.238Z,7.30
2023-02-11T15:51:19.236Z,7.40
2023-02-11T15:54:45.349Z,7.60
2023-02-11T15:58:09.589Z,7.50
2023-02-11T16:01:33.905Z,7.40
2023-02-11T16:04:57.819Z,7.20
2023-02-11T16:08:23.653Z,7.00
2023-02-11T16:11:53.820Z,6.90
2023-02-11T16:15:28.432Z,6.70
2023-02-11T16:19:03.177Z,6.50
2023-02-11T16:22:27.952Z,6.30
2023-02-11T16:25:51.528Z,6.20
2023-02-11T16:29:14.532Z,6.00
2023-02-11T16:32:36.135Z,5.80
2023-02-11T16:35:57.776Z,5.70
2023-02-11T16:39:21.166Z,5.60
2023-02-11T16:42:42.822Z,5.50
2023-02-11T16:46:04.657Z,5.40
2023-02-11T16:49:27.704Z,5.40
2023-02-11T16:52:49.459Z,5.40
2023-02-11T16:56:14.867Z,5.50
2023-02-11T16:59:36.467Z,5.60
2023-02-11T17:02:58.120Z,5.60
2023-02-11T17:06:19.789Z,5.60
2023-02-11T17:09:41.441Z,5.70
2023-02-11T17:13:04.440Z,5.70
2023-02-11T17:16:26.128Z,5.80
2023-02-11T17:19:47.853Z,5.90
2023-02-11T17:23:09.712Z,5.80
2023-02-11T17:26:31.325Z,5.90
2023-02-11T17:29:54.433Z,5.90
2023-02-11T17:33:16.040Z,6.00
2023-02-11T17:36:37.800Z,5.90
2023-02-11T17:39:59.404Z,5.90
2023-02-11T17:43:21.005Z,5.90
2023-02-11T17:46:44.040Z,5.90
2023-02-11T17:50:06.334Z,5.80
2023-02-11T17:53:27.942Z,5.80
2023-02-11T17:56:50.538Z,5.80
2023-02-11T18:00:12.919Z,5.80
2023-02-11T18:03:36.118Z,5.80
2023-02-11T18:06:57.897Z,5.70
2023-02-11T18:10:19.520Z,5.70
2023-02-11T18:13:41.312Z,5.70
2023-02-11T18:17:02.919Z,5.70
2023-02-11T18:20:25.903Z,5.60
2023-02-11T18:23:47.792Z,5.60
2023-02-11T18:27:09.597Z,5.60
2023-02-11T18:30:33.544Z,5.60
2023-02-11T18:33:55.198Z,5.60
2023-02-11T18:37:18.179Z,5.60
2023-02-11T18:40:39.842Z,5.60
2023-02-11T18:44:01.555Z,5.60
2023-02-11T18:47:23.150Z,5.50
2023-02-11T18:50:45.893Z,5.60
2023-02-11T18:54:08.986Z,5.50
2023-02-11T18:57:30.597Z,5.50
2023-02-11T19:00:52.229Z,5.40
2023-02-11T19:04:13.953Z,5.40
2023-02-11T19:07:35.606Z,5.30
2023-02-11T19:10:58.603Z,5.20
2023-02-11T19:14:21.430Z,5.20
2023-02-11T19:17:43.036Z,5.10
2023-02-11T19:21:08.595Z,5.00
2023-02-11T19:24:30.375Z,5.00
2023-02-11T19:27:53.320Z,5.00
2023-02-11T19:31:14.992Z,5.00
2023-02-11T19:34:37.498Z,5.00
2023-02-11T19:37:59.174Z,5.00
2023-02-11T19:41:21.065Z,5.00
2023-02-11T19:44:44.075Z,5.10
2023-02-11T19:48:05.915Z,5.10
2023-02-11T19:51:27.745Z,5.10
2023-02-11T19:54:49.431Z,5.10
2023-02-11T19:58:11.050Z,5.10
2023-02-11T20:01:34.559Z,5.10
2023-02-11T20:04:56.263Z,5.10
2023-02-11T20:08:17.897Z,5.00
2023-02-11T20:11:39.602Z,5.00
2023-02-11T20:15:01.261Z,4.90
2023-02-11T20:18:24.226Z,5.00
2023-02-11T20:21:47.725Z,5.00
2023-02-11T20:25:09.541Z,4.90
2023-02-11T20:28:31.383Z,4.90
2023-02-11T20:31:53.560Z,4.90
2023-02-11T20:35:16.601Z,4.90
2023-02-11T20:38:38.657Z,4.80
2023-02-11T20:42:00.261Z,4.80
2023-02-11T20:45:21.886Z,4.70
2023-02-11T20:48:43.540Z,4.50
2023-02-11T20:52:06.604Z,4.40
2023-02-11T20:55:28.607Z,4.30
2023-02-11T20:58:50.712Z,4.20
2023-02-11T21:02:12.415Z,4.00
2023-02-11T21:05:34.200Z,3.90
2023-02-11T21:08:57.153Z,3.80
2023-02-11T21:12:18.781Z,3.70
2023-02-11T21:15:40.405Z,3.60
2023-02-11T21:19:02.036Z,3.60
2023-02-11T21:22:23.783Z,3.70
2023-02-11T21:25:47.018Z,3.70
2023-02-11T21:29:09.028Z,3.70
2023-02-11T21:32:30.661Z,3.70
2023-02-11T21:35:54.759Z,3.70
2023-02-11T21:39:20.014Z,3.80
2023-02-11T21:42:42.986Z,3.90
2023-02-11T21:46:06.840Z,3.90
2023-02-11T21:49:28.584Z,4.00
2023-02-11T21:52:50.233Z,4.10
2023-02-11T21:56:13.009Z,4.20
2023-02-11T21:59:35.997Z,4.20
2023-02-11T22:02:57.655Z,4.20
2023-02-11T22:06:21.266Z,4.30
2023-02-11T22:09:42.901Z,4.40
2023-02-11T22:13:04.501Z,4.40
2023-02-11T22:16:28.112Z,4.50
2023-02-11T22:19:49.914Z,4.50
2023-02-11T22:23:11.518Z,4.60
2023-02-11T22:26:33.153Z,4.60
2023-02-11T22:29:54.818Z,4.60
2023-02-11T22:33:17.778Z,4.60
2023-02-11T22:36:40.279Z,4.60
2023-02-11T22:40:01.877Z,4.70
2023-02-11T22:43:28.475Z,4.60
2023-02-11T22:46:55.067Z,4.60
2023-02-11T22:50:18.132Z,4.60
2023-02-11T22:53:41.010Z,4.60
2023-02-11T22:57:03.296Z,4.60
2023-02-11T23:00:26.257Z,4.60
2023-02-11T23:03:48.204Z,4.70
2023-02-11T23:07:12.240Z,4.70
2023-02-11T23:10:34.625Z,4.60
2023-02-11T23:13:56.301Z,4.60
2023-02-11T23:17:17.920Z,4.60
2023-02-11T23:20:40.671Z,4.60
2023-02-11T23:24:05.036Z,4.50
2023-02-11T23:27:26.668Z,4.50
2023-02-11T23:30:48.335Z,4.50
2023-02-11T23:34:10.019Z,4.60
2023-02-11T23:37:31.626Z,4.60
2023-02-11T23:40:54.600Z,4.70
2023-02-11T23:44:16.224Z,4.70
2023-02-11T23:47:37.854Z,4.80
2023-02-11T23:50:59.470Z,4.80
2023-02-11T23:54:21.123Z,4.80
2023-02-11T23:57:44.089Z,4.80
